Flight Track Log - Related Links

Times and Time Zones

All times are in EDT time to prevent confusion due to time zone crossing. See the SBM7361 flight status page for this flight to view local times or setup timezone preferences in your user account.

Time Position Orientation Groundspeed Altitude Reporting Facility
EDT Latitude Longitude Course Direction KTS MPH feet Rate Location/Type
Sun 08:24:39 PM 23.5544 -75.8639 39° Northeast 247 284 700  Level Miami Center
Sun 08:25:39 PM 23.5753 -75.8456 39° Northeast 165 190 2,100 1,400 Climbing Miami Center
Sun 08:26:39 PM 23.5983 -75.8861 302° West 52 60 3,500 1,300 Climbing Miami Center
Sun 08:27:39 PM 23.6153 -75.9314 292° West 114 131 4,700 1,200 Climbing Miami Center
Sun 08:28:39 PM 23.6325 -75.9767 293° West 136 157 5,900 1,100 Climbing Miami Center
Sun 08:29:39 PM 23.6472 -76.0242 289° West 157 181 6,900 950 Climbing Miami Center
Sun 08:30:39 PM 23.6600 -76.0761 285° West 168 193 7,800 700 Climbing Miami Center
Sun 08:31:39 PM 23.6814 -76.1283 294° West 178 205 8,300 500 Climbing Miami Center
Sun 08:32:39 PM 23.7211 -76.1733 314° West 191 220 8,800 450 Climbing Miami Center
Sun 08:33:39 PM 23.7675 -76.2164 320° Northwest 203 234 9,200 450 Climbing Miami Center
Sun 08:34:39 PM 23.8136 -76.2592 320° Northwest 215 247 9,700 400 Climbing Miami Center
Sun 08:35:39 PM 23.8597 -76.3044 318° Northwest 220 253 10,000 150 Climbing Miami Center
Sun 08:36:39 PM 23.9100 -76.3542 318° Northwest 226 260 10,000  Level Miami Center
Sun 08:37:39 PM 23.9603 -76.4042 318° Northwest 231 266 10,000  Level Miami Center
Sun 08:38:39 PM 24.0106 -76.4517 319° Northwest 231 266 10,000  Level Miami Center
Sun 08:39:39 PM 24.0547 -76.4947 318° Northwest 236 272 10,000  Level Miami Center
Sun 08:40:39 PM 24.1050 -76.5447 318° Northwest 236 272 10,000  Level Miami Center
Sun 08:41:39 PM 24.1614 -76.5992 319° Northwest 241 277 10,000  Level Miami Center
Sun 08:42:39 PM 24.2117 -76.6492 318° Northwest 236 272 10,000  Level Miami Center
Sun 08:43:39 PM 24.2619 -76.6969 319° Northwest 236 272 10,000  Level Miami Center
Sun 08:44:39 PM 24.3122 -76.7472 318° Northwest 241 277 10,000  Level Miami Center
Sun 08:45:39 PM 24.3539 -76.7903 317° Northwest 236 272 10,000  Level Miami Center
Sun 08:46:39 PM 24.4042 -76.8406 318° Northwest 236 272 10,000  Level Miami Center
Sun 08:47:39 PM 24.4564 -76.8886 320° Northwest 241 277 10,000  Level Miami Center
Sun 08:48:39 PM 24.5044 -76.9389 316° Northwest 241 277 10,000  Level Miami Center
Sun 08:49:39 PM 24.5544 -76.9867 319° Northwest 241 277 10,000 -450 Level Miami Center
Sun 08:50:39 PM 24.6067 -77.0394 317° Northwest 241 277 9,100 -950 Descending Miami Center
Sun 08:51:39 PM 24.6653 -77.0967 318° Northwest 251 289 8,100 -1,000 Descending Miami Center
Sun 08:52:39 PM 24.7217 -77.1517 318° Northwest 270 311 7,100 -1,000 Descending Miami Center

Login

Don't have an account? Register now (free) for customized features, flight alerts, and more!